createdAt,value
2023-01-30T00:04:40.143Z,14.32
2023-01-30T00:09:42.910Z,13.40
2023-01-30T00:14:45.655Z,14.48
2023-01-30T00:19:48.411Z,12.85
2023-01-30T00:24:51.320Z,14.00
2023-01-30T00:30:02.513Z,14.98
2023-01-30T00:35:07.541Z,13.65
2023-01-30T00:40:10.646Z,16.45
2023-01-30T00:45:32.642Z,17.02
2023-01-30T00:50:42.757Z,16.25
2023-01-30T00:55:51.176Z,16.75
2023-01-30T01:00:54.157Z,18.40
2023-01-30T01:05:57.374Z,19.88
2023-01-30T01:11:00.350Z,17.85
2023-01-30T01:16:03.176Z,17.25
2023-01-30T01:21:06.852Z,17.08
2023-01-30T01:26:09.920Z,16.20
2023-01-30T01:31:13.683Z,17.60
2023-01-30T01:36:42.486Z,19.63
2023-01-30T01:41:39.691Z,16.88
2023-01-30T01:46:45.425Z,19.52
2023-01-30T01:51:48.111Z,19.40
2023-01-30T01:56:51.882Z,20.67
2023-01-30T02:01:58.726Z,20.98
2023-01-30T02:07:01.911Z,21.58
2023-01-30T02:12:06.080Z,23.90
2023-01-30T02:17:08.826Z,23.30
2023-01-30T02:22:21.612Z,27.27
2023-01-30T02:27:30.610Z,31.70
2023-01-30T02:32:43.322Z,28.42
2023-01-30T02:43:06.201Z,28.77
2023-01-30T02:48:15.206Z,30.55
2023-01-30T02:53:17.884Z,29.73
2023-01-30T02:58:21.599Z,36.75
2023-01-30T03:03:47.509Z,34.78
2023-01-30T03:09:08.284Z,32.90
2023-01-30T03:14:18.393Z,35.25
2023-01-30T03:19:21.324Z,34.38
2023-01-30T03:24:24.076Z,38.72
2023-01-30T03:29:26.852Z,35.42
2023-01-30T03:34:29.685Z,37.95
2023-01-30T03:39:32.357Z,34.92
2023-01-30T03:44:35.475Z,32.63
2023-01-30T03:49:38.280Z,35.20
2023-01-30T03:54:40.975Z,31.02
2023-01-30T03:59:44.469Z,30.92
2023-01-30T04:04:50.160Z,35.67
2023-01-30T04:09:53.268Z,30.70
2023-01-30T04:14:56.695Z,31.65
2023-01-30T04:20:25.486Z,30.73
2023-01-30T04:25:31.213Z,32.20
2023-01-30T04:30:34.507Z,31.15
2023-01-30T04:36:00.222Z,31.80
2023-01-30T04:41:03.944Z,28.20
2023-01-30T04:46:09.688Z,28.17
2023-01-30T04:51:12.532Z,26.80
2023-01-30T04:56:15.362Z,28.35
2023-01-30T05:01:22.991Z,28.60
2023-01-30T05:06:25.751Z,27.65
2023-01-30T05:11:29.305Z,31.40
2023-01-30T05:16:32.096Z,32.22
2023-01-30T05:21:34.688Z,37.28
2023-01-30T05:26:37.443Z,32.95
2023-01-30T05:31:40.073Z,36.95
2023-01-30T05:36:42.653Z,40.60
2023-01-30T05:41:45.463Z,38.65
2023-01-30T05:46:48.252Z,40.15
2023-01-30T05:51:51.660Z,36.67
2023-01-30T05:56:54.615Z,37.67
2023-01-30T06:01:57.207Z,30.30
2023-01-30T06:06:59.813Z,35.55
2023-01-30T06:12:02.942Z,39.35
2023-01-30T06:17:05.691Z,34.17
2023-01-30T06:22:08.450Z,38.65
2023-01-30T06:27:11.270Z,34.72
2023-01-30T06:32:14.098Z,45.08
2023-01-30T06:37:16.824Z,35.85
2023-01-30T06:42:19.584Z,38.17
2023-01-30T06:47:22.300Z,37.30
2023-01-30T06:52:25.024Z,34.38
2023-01-30T06:57:27.754Z,27.95
2023-01-30T07:02:32.581Z,33.10
2023-01-30T07:07:35.610Z,27.30
2023-01-30T07:12:38.912Z,27.08
2023-01-30T07:17:42.145Z,30.45
2023-01-30T07:22:55.301Z,20.88
2023-01-30T07:28:01.737Z,24.90
2023-01-30T07:33:05.728Z,21.85
2023-01-30T07:38:08.503Z,19.20
2023-01-30T07:43:12.653Z,22.20
2023-01-30T07:48:16.631Z,25.02
2023-01-30T07:53:19.822Z,20.33
2023-01-30T07:58:22.688Z,20.92
2023-01-30T08:03:25.691Z,17.33
2023-01-30T08:08:28.440Z,19.65
2023-01-30T08:13:31.190Z,22.48
2023-01-30T08:18:34.511Z,15.68
2023-01-30T08:23:37.380Z,16.10
2023-01-30T08:28:41.102Z,16.88
2023-01-30T08:33:47.792Z,17.10
2023-01-30T08:38:50.929Z,16.77
2023-01-30T08:43:53.783Z,18.40
2023-01-30T08:48:56.502Z,15.55
2023-01-30T08:53:59.524Z,13.77
2023-01-30T08:59:02.488Z,17.77
2023-01-30T09:04:05.897Z,13.15
2023-01-30T09:09:08.897Z,12.35
2023-01-30T09:14:11.828Z,13.35
2023-01-30T09:19:14.911Z,18.90
2023-01-30T09:24:17.823Z,15.18
2023-01-30T09:29:20.565Z,17.20
2023-01-30T09:34:27.891Z,13.52
2023-01-30T09:39:37.667Z,9.73
2023-01-30T09:44:46.592Z,10.88
2023-01-30T09:49:57.610Z,18.75
2023-01-30T09:55:16.394Z,11.25
2023-01-30T10:00:34.767Z,10.02
2023-01-30T10:05:52.840Z,9.82
2023-01-30T10:11:11.405Z,10.95
2023-01-30T10:16:21.680Z,10.23
2023-01-30T10:21:27.509Z,13.80
2023-01-30T10:26:31.670Z,10.40
2023-01-30T10:31:47.095Z,7.47
2023-01-30T10:36:56.708Z,7.53
2023-01-30T10:42:03.963Z,12.43
2023-01-30T10:47:16.357Z,11.32
2023-01-30T10:52:35.715Z,10.25
2023-01-30T10:57:45.816Z,12.55
2023-01-30T11:02:51.421Z,11.82
2023-01-30T11:07:54.730Z,19.83
2023-01-30T11:13:07.558Z,12.73
2023-01-30T11:18:41.387Z,12.88
2023-01-30T11:23:33.956Z,13.98
2023-01-30T11:28:41.855Z,15.10
2023-01-30T11:34:01.765Z,14.88
2023-01-30T11:39:04.817Z,14.63
2023-01-30T11:44:10.311Z,12.88
2023-01-30T11:49:47.236Z,9.38
2023-01-30T11:54:39.342Z,16.63
2023-01-30T11:59:48.474Z,12.43
2023-01-30T12:04:54.848Z,16.85
2023-01-30T12:09:58.349Z,13.20
2023-01-30T12:15:00.985Z,6.75
2023-01-30T12:20:14.540Z,6.60
2023-01-30T12:25:20.661Z,4.93
2023-01-30T12:30:29.410Z,7.72
2023-01-30T12:35:39.709Z,6.45
2023-01-30T12:40:44.664Z,7.70
2023-01-30T12:46:07.744Z,10.95
2023-01-30T12:51:10.957Z,7.32
2023-01-30T12:56:20.910Z,10.63
2023-01-30T13:01:38.061Z,12.32
2023-01-30T13:06:40.913Z,11.10
2023-01-30T13:12:07.153Z,12.15
2023-01-30T13:17:15.955Z,11.20
2023-01-30T13:22:31.716Z,12.90
2023-01-30T13:27:37.283Z,11.40
2023-01-30T13:32:50.410Z,8.73
2023-01-30T13:37:54.851Z,14.35
2023-01-30T13:43:04.883Z,10.70
2023-01-30T13:48:17.815Z,9.07
2023-01-30T13:58:42.237Z,11.90
2023-01-30T14:03:45.140Z,6.80
2023-01-30T14:08:50.886Z,8.82
2023-01-30T14:14:01.419Z,8.98
2023-01-30T14:19:19.739Z,7.22
2023-01-30T14:24:25.321Z,5.70
2023-01-30T14:29:43.437Z,6.13
2023-01-30T14:35:01.497Z,8.48
2023-01-30T14:40:24.354Z,5.53
2023-01-30T14:45:46.360Z,3.67
2023-01-30T14:50:49.717Z,5.57
2023-01-30T14:55:59.738Z,5.78
2023-01-30T15:01:02.580Z,5.80
2023-01-30T15:06:07.055Z,5.65
2023-01-30T15:11:26.266Z,6.05
2023-01-30T15:16:32.074Z,5.32
2023-01-30T15:21:41.500Z,5.63
2023-01-30T15:27:03.052Z,7.88
2023-01-30T15:32:35.202Z,8.00
2023-01-30T15:37:47.103Z,6.65
2023-01-30T15:42:52.876Z,2.67
2023-01-30T15:47:55.902Z,4.18
2023-01-30T15:52:59.301Z,5.22
2023-01-30T15:58:04.593Z,6.18
2023-01-30T16:03:11.273Z,6.20
2023-01-30T16:08:22.212Z,6.13
2023-01-30T16:13:25.314Z,5.90
2023-01-30T16:18:31.879Z,5.85
2023-01-30T16:23:37.646Z,7.55
2023-01-30T16:28:40.882Z,8.48
2023-01-30T16:33:49.772Z,9.30
2023-01-30T16:38:53.172Z,6.93
2023-01-30T16:44:14.433Z,9.82
2023-01-30T16:49:26.082Z,9.98
2023-01-30T16:54:29.934Z,14.25
2023-01-30T16:59:33.825Z,11.48
2023-01-30T17:04:40.678Z,9.15
2023-01-30T17:09:46.278Z,13.23
2023-01-30T17:14:49.066Z,11.90
2023-01-30T17:19:52.002Z,11.80
2023-01-30T17:24:58.864Z,12.68
2023-01-30T17:30:01.399Z,11.43
2023-01-30T17:35:04.230Z,8.50
2023-01-30T17:40:28.830Z,14.50
2023-01-30T17:45:31.689Z,11.18
2023-01-30T17:50:35.801Z,8.95
2023-01-30T17:55:38.881Z,10.10
2023-01-30T18:00:41.395Z,9.00
2023-01-30T18:05:44.083Z,12.80
2023-01-30T18:10:46.577Z,15.30
2023-01-30T18:15:49.192Z,16.23
2023-01-30T18:20:51.970Z,13.95
2023-01-30T18:25:54.617Z,12.60
2023-01-30T18:30:57.363Z,21.95
2023-01-30T18:36:04.095Z,14.88
2023-01-30T18:41:10.821Z,12.13
2023-01-30T18:46:14.734Z,12.13
2023-01-30T18:51:19.586Z,17.70
2023-01-30T18:56:24.567Z,17.10
2023-01-30T19:01:28.319Z,16.83
2023-01-30T19:06:31.167Z,16.55
2023-01-30T19:11:52.109Z,16.05
2023-01-30T19:16:54.971Z,21.58
2023-01-30T19:21:58.016Z,16.70
2023-01-30T19:27:00.752Z,17.35
2023-01-30T19:32:03.547Z,19.92
2023-01-30T19:37:07.318Z,16.58
2023-01-30T19:42:10.014Z,20.90
2023-01-30T19:47:12.511Z,17.25
2023-01-30T19:52:15.315Z,17.08
2023-01-30T19:57:18.003Z,18.08
2023-01-30T20:02:20.900Z,12.77
2023-01-30T20:07:23.823Z,18.48
2023-01-30T20:12:26.673Z,17.15
2023-01-30T20:17:31.682Z,19.73
2023-01-30T20:22:34.224Z,23.08
2023-01-30T20:27:37.015Z,20.23
2023-01-30T20:32:40.629Z,12.88
2023-01-30T20:37:43.475Z,14.23
2023-01-30T20:42:46.769Z,18.17
2023-01-30T20:47:49.374Z,22.00
2023-01-30T20:52:52.670Z,15.80
2023-01-30T20:57:55.245Z,19.98
2023-01-30T21:02:57.714Z,19.25
2023-01-30T21:08:00.549Z,9.60
2023-01-30T21:13:03.221Z,16.90
2023-01-30T21:18:05.982Z,17.25
2023-01-30T21:23:08.653Z,13.00
2023-01-30T21:28:11.395Z,13.80
2023-01-30T21:33:14.062Z,14.10
2023-01-30T21:38:35.611Z,13.63
2023-01-30T21:43:38.121Z,10.13
2023-01-30T21:48:40.915Z,14.02
2023-01-30T21:53:43.584Z,17.52
2023-01-30T21:58:46.270Z,11.25
2023-01-30T22:03:48.844Z,19.58
2023-01-30T22:08:58.667Z,8.40
2023-01-30T22:14:01.410Z,16.33
2023-01-30T22:19:05.072Z,10.75
2023-01-30T22:24:09.020Z,14.63
2023-01-30T22:29:11.694Z,11.73
2023-01-30T22:34:14.289Z,15.57
2023-01-30T22:39:16.965Z,14.35
2023-01-30T22:44:19.530Z,13.95
2023-01-30T22:49:22.191Z,17.42
2023-01-30T22:54:25.149Z,16.30
2023-01-30T22:59:27.728Z,14.10
2023-01-30T23:04:30.408Z,20.05
2023-01-30T23:09:33.185Z,24.70
2023-01-30T23:14:36.906Z,16.70
2023-01-30T23:19:40.387Z,15.32
2023-01-30T23:24:43.004Z,12.27
2023-01-30T23:29:45.782Z,16.63
2023-01-30T23:34:48.774Z,15.73
2023-01-30T23:39:54.325Z,16.08
2023-01-30T23:44:57.092Z,10.75
2023-01-30T23:49:59.869Z,18.25
2023-01-30T23:55:02.540Z,11.68
